Hauptseite
METAR-TAF:

METAR-TAF

Flughäfen :

Václav-Havel-Flughafen Prag

Prag, Tschechien

Breite: 50-06N, Länge: 014-15E, Höhe: 365 m

Beobachtung

Neuester Wetterbericht von vor 41 Minuten, um 08:30 UTC
Wind 5 kt aus Nordost, variierte zwischen Nord und Ost/Südost
Temperatur 22°C
Luftfeuchtigkeit 53%
Luftdruck 1024 hPa
Sichtweite 10 km oder mehr
Leicht bewölkt in der Höhe von 4000 ft

METAR: LKPR 180830Z 05005KT 350V110 9999 FEW040 22/12 Q1024 NOSIG

Zeit: 11:11 (09:11 UTC)

Prognose

Neuester Wetterbericht von vor 1 Stunde und 11 Minuten, um 08:00 UTC
Gültige Prognose vom 18 um 09 UTC bis 19 um 15 UTC
Wind 6 kt aus Nord/Nordost
Sichtweite 10 km oder mehr
keine Wolken unter 1500 m und keine Kumulonimbus oder Gewitterwolken
Wahrscheinlichkeit 30% :
Zeitweise
vom 19 um 03 UTC bis 19 um 05 UTC
Sichtweite: 5000 m
feuchter Dunst,

TAF: LKPR 180800Z 1809/1915 02006KT CAVOK PROB30 TEMPO 1903/1905 5000 BR NSC

Wetterbeobachtungen und Prognosen von mehr als 4000 Flughäfen (METAR und TAF Bericht).

Die verfügbaren Stationen werden durch gelbe und rote Markierungen auf der Karte dargestellt.

Führen Sie die Maus auf sie, um den Namen der Station zu sehen.

Darauf klicken, um die Beobachtung von Wetterbeobachtungen und Prognosen zu sehen.

Um die Karte zu ändern : klicken Sie auf den grünen Tasten mit einem schwarzen Kreuz Zum Vergrößern, auf den grünen Button mit einem Gedankenstrich zu verkleinern, oder auf die grünen Pfeile für benachbarte Karten.


METAR-TAF: